sensor_id;sensor_type;location;lat;lon;timestamp;pressure;altitude;pressure_sealevel;temperature;humidity
49065;BME280;34877;27.062;-82.386;2022-10-16T02:50:33;101858.65;;;13.50;81.74
49065;BME280;34877;27.062;-82.386;2022-10-16T03:00:37;101856.28;;;13.96;73.17
49065;BME280;34877;27.062;-82.386;2022-10-16T03:10:42;101856.53;;;13.04;70.68
49065;BME280;34877;27.062;-82.386;2022-10-16T03:20:47;101858.23;;;13.80;68.00
49065;BME280;34877;27.062;-82.386;2022-10-16T03:30:52;101852.58;;;13.45;70.30
49065;BME280;34877;27.062;-82.386;2022-10-16T03:40:56;101849.55;;;12.85;72.18
49065;BME280;34877;27.062;-82.386;2022-10-16T03:51:02;101840.51;;;12.80;70.59
49065;BME280;34877;27.062;-82.386;2022-10-16T04:01:07;101843.27;;;13.04;71.57
49065;BME280;34877;27.062;-82.386;2022-10-16T04:11:12;101829.90;;;13.67;72.21
49065;BME280;34877;27.062;-82.386;2022-10-16T04:21:17;101813.81;;;14.28;71.81
49065;BME280;34877;27.062;-82.386;2022-10-16T04:31:22;101794.55;;;13.38;74.19
49065;BME280;34877;27.062;-82.386;2022-10-16T04:41:26;101795.01;;;13.55;75.34
49065;BME280;34877;27.062;-82.386;2022-10-16T04:51:32;101788.15;;;13.73;75.76
49065;BME280;34877;27.062;-82.386;2022-10-16T05:01:37;101784.60;;;12.77;79.36
49065;BME280;34877;27.062;-82.386;2022-10-16T05:11:42;101772.02;;;13.93;74.06
49065;BME280;34877;27.062;-82.386;2022-10-16T05:21:47;101772.89;;;13.55;75.52
49065;BME280;34877;27.062;-82.386;2022-10-16T05:31:52;101771.74;;;13.73;75.34
49065;BME280;34877;27.062;-82.386;2022-10-16T05:41:57;101773.82;;;13.64;76.52
49065;BME280;34877;27.062;-82.386;2022-10-16T05:52:02;101756.20;;;13.48;77.08
49065;BME280;34877;27.062;-82.386;2022-10-16T06:02:10;101745.49;;;14.44;74.54
49065;BME280;34877;27.062;-82.386;2022-10-16T06:12:17;101748.17;;;13.19;75.42
49065;BME280;34877;27.062;-82.386;2022-10-16T06:22:22;101745.06;;;14.52;74.77
49065;BME280;34877;27.062;-82.386;2022-10-16T06:32:27;101740.61;;;14.05;76.37
49065;BME280;34877;27.062;-82.386;2022-10-16T06:42:31;101731.71;;;13.64;77.82
49065;BME280;34877;27.062;-82.386;2022-10-16T06:52:36;101731.03;;;14.29;74.33
49065;BME280;34877;27.062;-82.386;2022-10-16T07:02:42;101727.38;;;13.20;76.75
49065;BME280;34877;27.062;-82.386;2022-10-16T07:12:47;101708.42;;;13.84;76.56
49065;BME280;34877;27.062;-82.386;2022-10-16T07:22:52;101706.01;;;14.59;74.33
49065;BME280;34877;27.062;-82.386;2022-10-16T07:32:57;101704.06;;;13.02;75.99
49065;BME280;34877;27.062;-82.386;2022-10-16T07:43:02;101699.47;;;13.92;76.41
49065;BME280;34877;27.062;-82.386;2022-10-16T07:53:07;101691.87;;;14.82;74.18
49065;BME280;34877;27.062;-82.386;2022-10-16T08:03:11;101690.79;;;13.42;81.44
49065;BME280;34877;27.062;-82.386;2022-10-16T08:13:16;101684.85;;;14.56;76.14
49065;BME280;34877;27.062;-82.386;2022-10-16T08:23:22;101683.86;;;14.66;75.68
49065;BME280;34877;27.062;-82.386;2022-10-16T08:33:26;101687.69;;;14.63;75.70
49065;BME280;34877;27.062;-82.386;2022-10-16T08:43:55;101692.81;;;15.16;76.14
49065;BME280;34877;27.062;-82.386;2022-10-16T08:54:04;101693.96;;;14.99;76.72
49065;BME280;34877;27.062;-82.386;2022-10-16T09:04:56;101696.34;;;15.12;76.92
49065;BME280;34877;27.062;-82.386;2022-10-16T09:15:16;101703.58;;;14.97;77.00
49065;BME280;34877;27.062;-82.386;2022-10-16T09:25:22;101700.55;;;14.76;77.33
49065;BME280;34877;27.062;-82.386;2022-10-16T09:35:33;101694.27;;;15.30;77.69
49065;BME280;34877;27.062;-82.386;2022-10-16T09:45:41;101697.91;;;15.36;78.16
49065;BME280;34877;27.062;-82.386;2022-10-16T09:55:51;101699.82;;;15.41;78.43
49065;BME280;34877;27.062;-82.386;2022-10-16T10:05:57;101708.29;;;15.21;78.76
49065;BME280;34877;27.062;-82.386;2022-10-16T10:16:02;101715.78;;;15.13;78.64
49065;BME280;34877;27.062;-82.386;2022-10-16T10:26:10;101711.11;;;15.31;79.27
49065;BME280;34877;27.062;-82.386;2022-10-16T10:36:27;101718.88;;;15.54;79.46
49065;BME280;34877;27.062;-82.386;2022-10-16T10:46:35;101725.22;;;15.25;79.98
49065;BME280;34877;27.062;-82.386;2022-10-16T10:56:49;101727.05;;;15.67;79.82
49065;BME280;34877;27.062;-82.386;2022-10-16T11:07:01;101724.74;;;15.69;80.40
49065;BME280;34877;27.062;-82.386;2022-10-16T11:17:10;101730.77;;;15.73;80.82
49065;BME280;34877;27.062;-82.386;2022-10-16T11:27:22;101744.71;;;15.33;80.51
49065;BME280;34877;27.062;-82.386;2022-10-16T11:37:32;101748.20;;;15.40;80.76
49065;BME280;34877;27.062;-82.386;2022-10-16T11:47:40;101753.85;;;14.99;81.97
49065;BME280;34877;27.062;-82.386;2022-10-16T11:57:49;101756.66;;;14.57;82.35
49065;BME280;34877;27.062;-82.386;2022-10-16T12:08:01;101755.78;;;15.07;82.71
49065;BME280;34877;27.062;-82.386;2022-10-16T12:18:20;101763.03;;;14.99;82.47
49065;BME280;34877;27.062;-82.386;2022-10-16T12:28:28;101770.02;;;15.34;82.35
49065;BME280;34877;27.062;-82.386;2022-10-16T12:38:37;101766.37;;;14.84;82.92
49065;BME280;34877;27.062;-82.386;2022-10-16T12:48:43;101776.15;;;15.05;83.29
49065;BME280;34877;27.062;-82.386;2022-10-16T12:58:57;101773.17;;;15.40;84.03
49065;BME280;34877;27.062;-82.386;2022-10-16T13:09:26;101786.58;;;15.08;83.94
49065;BME280;34877;27.062;-82.386;2022-10-16T13:19:38;101806.66;;;15.28;83.71
49065;BME280;34877;27.062;-82.386;2022-10-16T13:29:52;101818.09;;;15.36;83.87
49065;BME280;34877;27.062;-82.386;2022-10-16T13:40:12;101827.87;;;15.38;85.10
49065;BME280;34877;27.062;-82.386;2022-10-16T13:50:22;101831.46;;;15.73;89.16
49065;BME280;34877;27.062;-82.386;2022-10-16T14:00:29;101817.69;;;15.13;91.64
49065;BME280;34877;27.062;-82.386;2022-10-16T14:10:33;101813.85;;;15.43;88.59
49065;BME280;34877;27.062;-82.386;2022-10-16T14:20:36;101798.65;;;15.83;89.75
49065;BME280;34877;27.062;-82.386;2022-10-16T14:30:52;101780.90;;;15.89;90.15
49065;BME280;34877;27.062;-82.386;2022-10-16T14:40:58;101780.96;;;15.73;91.00
49065;BME280;34877;27.062;-82.386;2022-10-16T14:51:08;101770.57;;;16.00;89.65
49065;BME280;34877;27.062;-82.386;2022-10-16T15:01:17;101763.21;;;16.40;89.13
49065;BME280;34877;27.062;-82.386;2022-10-16T15:11:22;101757.65;;;16.38;88.56
49065;BME280;34877;27.062;-82.386;2022-10-16T15:21:29;101748.05;;;16.31;88.56
49065;BME280;34877;27.062;-82.386;2022-10-16T15:31:33;101737.82;;;16.47;87.66
49065;BME280;34877;27.062;-82.386;2022-10-16T15:41:37;101732.07;;;17.08;86.44
49065;BME280;34877;27.062;-82.386;2022-10-16T15:51:42;101723.25;;;16.92;86.04
49065;BME280;34877;27.062;-82.386;2022-10-16T16:01:47;101718.30;;;17.24;86.42
49065;BME280;34877;27.062;-82.386;2022-10-16T16:11:51;101711.98;;;17.03;86.92
49065;BME280;34877;27.062;-82.386;2022-10-16T16:21:57;101716.42;;;16.77;87.14
49065;BME280;34877;27.062;-82.386;2022-10-16T16:32:02;101696.55;;;17.59;86.18
49065;BME280;34877;27.062;-82.386;2022-10-16T16:42:07;101677.70;;;17.30;85.74
49065;BME280;34877;27.062;-82.386;2022-10-16T16:52:18;101671.74;;;17.79;85.91
49065;BME280;34877;27.062;-82.386;2022-10-16T17:02:22;101653.24;;;17.74;85.88
49065;BME280;34877;27.062;-82.386;2022-10-16T17:12:28;101641.36;;;17.35;85.15
49065;BME280;34877;27.062;-82.386;2022-10-16T17:22:33;101627.66;;;17.90;84.85
49065;BME280;34877;27.062;-82.386;2022-10-16T17:32:37;101610.94;;;17.56;85.24
49065;BME280;34877;27.062;-82.386;2022-10-16T17:42:42;101593.90;;;17.67;85.39
49065;BME280;34877;27.062;-82.386;2022-10-16T17:52:47;101583.50;;;18.06;85.05
49065;BME280;34877;27.062;-82.386;2022-10-16T18:02:52;101561.89;;;17.82;94.10
49065;BME280;34877;27.062;-82.386;2022-10-16T18:12:56;101553.12;;;17.59;98.38
49065;BME280;34877;27.062;-82.386;2022-10-16T18:23:02;101538.81;;;18.18;97.75
49065;BME280;34877;27.062;-82.386;2022-10-16T18:33:06;101530.67;;;19.12;97.56
49065;BME280;34877;27.062;-82.386;2022-10-16T18:43:12;101509.80;;;18.78;96.41
49065;BME280;34877;27.062;-82.386;2022-10-16T18:53:17;101501.17;;;19.13;95.90
49065;BME280;34877;27.062;-82.386;2022-10-16T19:03:23;101490.25;;;18.85;96.52
49065;BME280;34877;27.062;-82.386;2022-10-16T19:13:27;101481.64;;;19.31;98.06
49065;BME280;34877;27.062;-82.386;2022-10-16T19:23:32;101479.98;;;19.03;100.00
49065;BME280;34877;27.062;-82.386;2022-10-16T19:33:37;101472.75;;;19.22;100.00
49065;BME280;34877;27.062;-82.386;2022-10-16T19:43:43;101478.03;;;18.83;100.00
49065;BME280;34877;27.062;-82.386;2022-10-16T19:53:47;101478.14;;;19.27;100.00
49065;BME280;34877;27.062;-82.386;2022-10-16T20:03:59;101482.14;;;19.43;99.04
49065;BME280;34877;27.062;-82.386;2022-10-16T20:14:03;101480.66;;;18.73;98.41
49065;BME280;34877;27.062;-82.386;2022-10-16T20:24:06;101475.36;;;18.96;100.00
49065;BME280;34877;27.062;-82.386;2022-10-16T20:34:12;101467.65;;;19.43;95.58
49065;BME280;34877;27.062;-82.386;2022-10-16T20:44:17;101457.67;;;19.40;92.07
49065;BME280;34877;27.062;-82.386;2022-10-16T20:54:22;101451.95;;;19.25;91.84
49065;BME280;34877;27.062;-82.386;2022-10-16T21:04:26;101451.84;;;20.05;90.69
49065;BME280;34877;27.062;-82.386;2022-10-16T21:14:32;101456.09;;;19.24;87.45
49065;BME280;34877;27.062;-82.386;2022-10-16T21:24:38;101451.97;;;19.37;100.00
49065;BME280;34877;27.062;-82.386;2022-10-16T21:34:42;101445.46;;;19.06;98.79
49065;BME280;34877;27.062;-82.386;2022-10-16T21:44:47;101435.78;;;18.50;99.52
49065;BME280;34877;27.062;-82.386;2022-10-16T21:54:52;101428.15;;;18.25;81.56
49065;BME280;34877;27.062;-82.386;2022-10-16T22:04:57;101443.26;;;18.61;76.86
49065;BME280;34877;27.062;-82.386;2022-10-16T22:15:02;101441.53;;;18.64;73.54
49065;BME280;34877;27.062;-82.386;2022-10-16T22:25:08;101451.79;;;18.60;71.79
49065;BME280;34877;27.062;-82.386;2022-10-16T22:35:11;101456.77;;;18.34;77.01
49065;BME280;34877;27.062;-82.386;2022-10-16T22:45:17;101449.76;;;18.59;72.13
49065;BME280;34877;27.062;-82.386;2022-10-16T22:55:22;101458.54;;;18.41;73.79
49065;BME280;34877;27.062;-82.386;2022-10-16T23:05:27;101455.10;;;18.75;76.25
49065;BME280;34877;27.062;-82.386;2022-10-16T23:15:33;101460.80;;;18.27;76.52
49065;BME280;34877;27.062;-82.386;2022-10-16T23:25:43;101469.11;;;18.29;75.85
49065;BME280;34877;27.062;-82.386;2022-10-16T23:35:47;101462.78;;;17.83;71.85
49065;BME280;34877;27.062;-82.386;2022-10-16T23:45:52;101458.02;;;17.11;66.07
49065;BME280;34877;27.062;-82.386;2022-10-16T23:55:57;101462.87;;;17.17;65.30
